»·PEaware :: N14QS KSUN-KPDX

N14QS :: KSUN-KPDX

FLIGHT INFORMATION

Flight Status: Arrived
Operator: Privately registered:
United States
More flights under this callsign
Pilot: Anonymous 36068 (36068)
Aircraft: BEECH AIRCRAFT PREMIER
(PRM1)
More flights by this aircraft type
Origin: KSUN Friedman Meml
United States
Destination: KPDX Portland Intl
United States
More flights between these airports :: More routes between these airports
Route: AUREL3 SOLDE V444 BOI JOTBA HHOOD4
File this flight plan on PilotEdge
Remarks:
Altitude:
(Current/Filed)
34,000ft
Speed:
(Current/Filed)
400kts
Departed: 15-Sep-21 07:57 AM
Arrived: 15-Sep-21 09:12 AM
Distance/Time
Traveled:
375nm/1:15
Distance/Time
To Go:
Arrived

Flight Plot

Page will automatically refresh every two minutes.

Flight plan parsing failed; only flown route is shown


Map Options




Map Legend


Flown Route
Filed Route
Departure Airport
Arrival Airport
Navaid (VOR, NDB)
Fix

Horizontal Profiles

Position Reports

Time Latitude Longitude Heading Altitude Ground
Speed
15-Sep-21 07:32 43.509747 -114.303703 148 5314ft 0kts
15-Sep-21 07:33 43.509747 -114.303703 148 5314ft 0kts
15-Sep-21 07:34 43.509747 -114.303703 148 5314ft 0kts
15-Sep-21 07:35 43.509747 -114.303703 148 5314ft 0kts
15-Sep-21 07:36 43.509747 -114.303703 148 5314ft 0kts
15-Sep-21 07:37 43.509747 -114.303703 148 5314ft 0kts
15-Sep-21 07:38 43.509747 -114.303703 148 5314ft 0kts
15-Sep-21 07:39 43.509747 -114.303703 148 5314ft 0kts
15-Sep-21 07:40 43.509747 -114.303703 148 5314ft 0kts
15-Sep-21 07:41 43.509747 -114.303703 148 5314ft 0kts
15-Sep-21 07:42 43.509747 -114.303703 148 5314ft 0kts
15-Sep-21 07:43 43.509747 -114.303703 148 5314ft 0kts
15-Sep-21 07:44 43.509747 -114.303703 148 5314ft 0kts
15-Sep-21 07:45 43.509747 -114.303703 148 5314ft 0kts
15-Sep-21 07:46 43.509747 -114.303703 148 5314ft 0kts
15-Sep-21 07:47 43.509747 -114.303703 148 5314ft 0kts
15-Sep-21 07:48 43.509747 -114.303703 148 5314ft 0kts
15-Sep-21 07:49 43.509747 -114.303703 148 5314ft 0kts
15-Sep-21 07:50 43.509747 -114.303703 148 5314ft 0kts
15-Sep-21 07:51 43.509648 -114.303540 109 5314ft 5kts
15-Sep-21 07:52 43.511387 -114.304368 345 5315ft 0kts
15-Sep-21 07:53 43.511387 -114.304368 345 5315ft 0kts
15-Sep-21 07:54 43.511387 -114.304368 345 5315ft 0kts
15-Sep-21 07:55 43.511387 -114.304368 345 5315ft 0kts
15-Sep-21 07:56 43.504114 -114.295861 145 5289ft 137kts
15-Sep-21 07:57 43.461436 -114.265898 164 7585ft 201kts
15-Sep-21 07:58 43.401400 -114.244458 165 10137ft 246kts
15-Sep-21 07:59 43.334322 -114.241257 222 12937ft 261kts
15-Sep-21 08:00 43.305693 -114.332579 254 15545ft 272kts
15-Sep-21 08:01 43.285087 -114.434272 254 17901ft 283kts
15-Sep-21 08:02 43.263577 -114.539726 254 20017ft 293kts
15-Sep-21 08:03 43.270916 -114.650535 284 21912ft 302kts
15-Sep-21 08:04 43.286793 -114.733973 284 23177ft 309kts
15-Sep-21 08:05 43.308624 -114.849417 284 24777ft 317kts
15-Sep-21 08:06 43.330924 -114.968092 284 26230ft 325kts
15-Sep-21 08:07 43.353664 -115.089856 284 27548ft 333kts
15-Sep-21 08:08 43.376779 -115.214465 284 28746ft 340kts
15-Sep-21 08:09 43.400102 -115.341055 284 29832ft 346kts
15-Sep-21 08:10 43.423194 -115.467242 284 31278ft 338kts
15-Sep-21 08:11 43.446324 -115.594525 284 32199ft 344kts
15-Sep-21 08:12 43.468861 -115.719470 283 33472ft 336kts
15-Sep-21 08:13 43.491510 -115.845761 283 34000ft 350kts
15-Sep-21 08:15 43.515630 -115.981259 283 34004ft 376kts
15-Sep-21 08:16 43.541048 -116.125168 283 34003ft 397kts
15-Sep-21 08:17 43.583441 -116.268061 298 34002ft 413kts
15-Sep-21 08:18 43.639181 -116.407514 299 33999ft 415kts
15-Sep-21 08:19 43.694600 -116.546570 299 33999ft 413kts
15-Sep-21 08:20 43.749865 -116.685923 298 33999ft 412kts
15-Sep-21 08:21 43.804536 -116.824450 298 33999ft 412kts
15-Sep-21 08:22 43.859266 -116.963815 298 33999ft 411kts
15-Sep-21 08:23 43.913617 -117.102897 298 33999ft 411kts
15-Sep-21 08:24 43.967798 -117.242231 298 34000ft 411kts
15-Sep-21 08:25 44.021874 -117.381985 298 34000ft 411kts
15-Sep-21 08:26 44.075611 -117.521494 298 34000ft 411kts
15-Sep-21 08:27 44.129417 -117.662002 297 34000ft 411kts
15-Sep-21 08:28 44.182898 -117.802307 297 34000ft 411kts
15-Sep-21 08:29 44.236144 -117.942698 297 34000ft 411kts
15-Sep-21 08:30 44.289238 -118.083399 297 34000ft 411kts
15-Sep-21 08:31 44.342199 -118.224459 297 34000ft 411kts
15-Sep-21 08:32 44.395119 -118.366168 297 34000ft 411kts
15-Sep-21 08:33 44.447674 -118.507591 297 34000ft 411kts
15-Sep-21 08:34 44.500289 -118.649899 297 34000ft 411kts
15-Sep-21 08:35 44.552636 -118.792171 297 34000ft 411kts
15-Sep-21 08:36 44.604808 -118.934748 297 34000ft 411kts
15-Sep-21 08:36 44.648067 -119.053534 297 34000ft 412kts
15-Sep-21 08:38 44.708700 -119.220899 297 34000ft 412kts
15-Sep-21 08:39 44.760317 -119.364193 297 34000ft 412kts
15-Sep-21 08:40 44.811700 -119.507586 297 34000ft 412kts
15-Sep-21 08:41 44.863132 -119.651880 296 34000ft 412kts
15-Sep-21 08:41 44.906003 -119.772740 296 33401ft 418kts
15-Sep-21 08:42 44.957444 -119.918484 296 31334ft 412kts
15-Sep-21 08:44 45.015488 -120.083887 296 28876ft 395kts
15-Sep-21 08:45 45.063248 -120.220749 296 26775ft 384kts
15-Sep-21 08:46 45.110397 -120.356553 296 24678ft 388kts
15-Sep-21 08:46 45.149300 -120.469119 296 23997ft 371kts
15-Sep-21 08:47 45.196290 -120.596146 299 22640ft 365kts
15-Sep-21 08:48 45.240828 -120.711665 298 20717ft 364kts
15-Sep-21 08:50 45.290705 -120.841566 298 18537ft 359kts
15-Sep-21 08:50 45.329957 -120.944223 298 17041ft 347kts
15-Sep-21 08:51 45.374055 -121.060005 298 16999ft 327kts
15-Sep-21 08:52 45.417105 -121.173316 298 15376ft 325kts
15-Sep-21 08:53 45.446583 -121.294582 286 13201ft 324kts
15-Sep-21 08:55 45.473089 -121.428635 286 12996ft 283kts
15-Sep-21 08:55 45.491657 -121.522488 286 11327ft 305kts
15-Sep-21 08:56 45.514250 -121.637293 286 9219ft 292kts
15-Sep-21 08:57 45.530098 -121.746248 274 8837ft 265kts
15-Sep-21 08:58 45.534077 -121.842473 272 7693ft 229kts
15-Sep-21 08:59 45.537349 -121.934448 272 6711ft 230kts
15-Sep-21 09:00 45.541701 -122.023217 269 6696ft 225kts
15-Sep-21 09:01 45.514691 -122.096745 234 5733ft 196kts
15-Sep-21 09:02 45.484945 -122.156370 234 5727ft 172kts
15-Sep-21 09:03 45.475957 -122.219748 276 4785ft 169kts
15-Sep-21 09:04 45.481378 -122.285678 277 3580ft 166kts
15-Sep-21 09:05 45.496780 -122.343441 297 2887ft 139kts
15-Sep-21 09:06 45.517424 -122.397742 299 2695ft 154kts
15-Sep-21 09:07 45.537200 -122.448130 299 1933ft 139kts
15-Sep-21 09:08 45.555692 -122.495393 299 1199ft 129kts
15-Sep-21 09:09 45.571990 -122.537120 299 550ft 118kts
15-Sep-21 09:10 45.587255 -122.576395 303 23ft 98kts
15-Sep-21 09:11 45.590304 -122.586324 270 23ft 0kts
15-Sep-21 09:12 45.589837 -122.586117 119 23ft 10kts
15-Sep-21 09:13 45.587950 -122.581248 119 23ft 15kts
15-Sep-21 09:14 45.586133 -122.578762 210 23ft 7kts
15-Sep-21 09:15 45.585698 -122.580440 208 23ft 2kts

Navigation Log

Ident Type
Flight plan parsing failed, navigation log unavailable